SKCGSKBG

Guest
Details From SKCG - RAFAEL NUNEZ
To SKBG - PALONEGRO
Flight Number -
Tags generated
Created
Modified
Stats Distance 243 nm / 450 km
Max Altitude 27,400 ft / 8,352 m
Waypoints 6
Social Downloads 0
Likes 0
Share VATSIM

Download

Looking for another format? Having issues loading an existing format? Contact us
Advertisement - Login to hide

Notes

Basic altitude profile: - Ascent Rate: 2500ft/min - Ascent Speed: 250kts - Cruise Altitude: 35000ft - Cruise Speed: 420kts - Descent Rate: 1500ft/min - Descent Speed: 250kts Options: - Use NATs: yes - Use PACOTS: yes - Use low airways: yes - Use high airways: yes

Route

SKCG MGN W35 BGA SKBG

ID Type Via Altitude Latitude Longitude Leg Dist Tot Dist Heading (true) Name
O SKCG APT - 0 ft / 0 m 10.44238˚ -75.51296˚ - 0 nm - RAFAEL NUNEZ
MGN VOR - 27,400 ft / 8,352 m 9.28722˚ -74.84694˚ 79 nm 79 nm 150° / 150° MAGANGUE VOR-DME
BOBIC FIX W35 (AWY-LO) 13,800 ft / 4,206 m 8.04611˚ -73.88694˚ 93 nm 173 nm 143° / 143° -
RODRA FIX W35 (AWY-LO) 6,500 ft / 1,981 m 7.52972˚ -73.48972˚ 38 nm 212 nm 143° / 143° -
BGA VOR W35 (AWY-LO) 7,500 ft / 2,286 m 7.13156˚ -73.18439˚ 30 nm 242 nm 143° / 143° BUCARAMANGA VOR-DME
O SKBG APT - 0 ft / 0 m 7.12650˚ -73.18476˚ 0 nm 242 nm 184° / 184° PALONEGRO

Altitude Profile

Advertisement - Login to hide

Weather


0- 5 10 15 20 25 30 35+ Temperature / ° C

Clouds and Precipitation
Forecast for 2017-12-11 18:00 UTC. Updated 10 minutes ago

Ground ~20,000 ft ~40,000 ft Winds

SKCG

Details ICAO SKCG (CTG)
Name RAFAEL NUNEZ
Region Colombia
Timezone America/Bogota (UTC-5.0)
Stats Elevation 4 ft / 1 m (AMSL)
Location 10.442379° -75.512961°
Runways 1
Magnetic Variation 7.203° W

METAR

SKCG 111700Z 09006KT 9999 SCT015TCU SCT200 32/26 A2985 RMK TCU/W

Decode

TAF

Not found

Departure Runways

ID Width Length Bearing (true) Bearing (mag) Surface Threshold Offset Overrun Length
01 148 ft / 45 m 8,584 ft / 2,616 m 2.31° 9.51° Asphalt 0 ft / 0 m 180 ft / 55 m
19 148 ft / 45 m 8,584 ft / 2,616 m 182.31° 189.51° Asphalt 190 ft / 58 m 0 ft / 0 m

SKBG

Details ICAO SKBG (BGA)
Name PALONEGRO
Region Colombia
Timezone America/Bogota (UTC-5.0)
Stats Elevation 3,896 ft / 1,188 m (AMSL)
Location 7.126500° -73.184764°
Runways 1
Magnetic Variation 8.230° W

METAR

SKBG 111700Z 30005KT 9999 FEW006 SCT012 25/20 A3000

Decode

TAF

Not found

Destination Runways

ID Width Length Bearing (true) Bearing (mag) Surface Threshold Offset Overrun Length
16 164 ft / 50 m 7,452 ft / 2,271 m 159.37° 167.60° Asphalt 0 ft / 0 m 0 ft / 0 m
34 164 ft / 50 m 7,452 ft / 2,271 m 339.37° 347.60° Asphalt 0 ft / 0 m 0 ft / 0 m

Approach Navaids

Runway Type Ident Frequency Range Bearing (true) Bearing (mag) Slope Elevation
34 Localiser IBGA 110.70 MHz 18 nm / 33 km 339.37° 347.60° - 3,897 ft / 1,188 m (AMSL)
34 Glidescope IBGA 110.70 MHz 10 nm / 19 km 339.37° 347.60° 3.00° 3,897 ft / 1,188 m (AMSL)
34 DME IBGA 110.70 MHz 18 nm / 33 km - - - 3,897 ft / 1,188 m (AMSL)